sensor_id;sensor_type;location;lat;lon;timestamp;pressure;altitude;pressure_sealevel;temperature;humidity
77017;BME280;65949;53.132;17.930;2023-02-28T00:01:18;102710.34;;;-3.86;71.71
77017;BME280;65949;53.132;17.930;2023-02-28T00:03:45;102712.31;;;-3.87;71.70
77017;BME280;65949;53.132;17.930;2023-02-28T00:06:11;102710.35;;;-3.91;71.70
77017;BME280;65949;53.132;17.930;2023-02-28T00:08:38;102707.77;;;-3.95;71.92
77017;BME280;65949;53.132;17.930;2023-02-28T00:11:08;102709.37;;;-3.98;71.60
77017;BME280;65949;53.132;17.930;2023-02-28T00:13:37;102706.39;;;-4.02;71.72
77017;BME280;65949;53.132;17.930;2023-02-28T00:16:06;102710.60;;;-4.06;71.89
77017;BME280;65949;53.132;17.930;2023-02-28T00:18:33;102706.20;;;-4.11;71.92
77017;BME280;65949;53.132;17.930;2023-02-28T00:21:00;102708.10;;;-4.14;72.02
77017;BME280;65949;53.132;17.930;2023-02-28T00:23:27;102705.44;;;-4.17;72.18
77017;BME280;65949;53.132;17.930;2023-02-28T00:25:54;102706.46;;;-4.19;72.38
77017;BME280;65949;53.132;17.930;2023-02-28T00:28:21;102712.52;;;-4.21;72.12
77017;BME280;65949;53.132;17.930;2023-02-28T00:30:47;102713.66;;;-4.23;72.04
77017;BME280;65949;53.132;17.930;2023-02-28T00:33:14;102710.31;;;-4.26;72.22
77017;BME280;65949;53.132;17.930;2023-02-28T00:35:41;102710.92;;;-4.25;72.27
77017;BME280;65949;53.132;17.930;2023-02-28T00:38:09;102708.55;;;-4.22;72.28
77017;BME280;65949;53.132;17.930;2023-02-28T00:40:36;102711.04;;;-4.22;72.23
77017;BME280;65949;53.132;17.930;2023-02-28T00:43:02;102705.61;;;-4.19;72.14
77017;BME280;65949;53.132;17.930;2023-02-28T00:45:30;102708.03;;;-4.17;71.85
77017;BME280;65949;53.132;17.930;2023-02-28T00:47:57;102710.16;;;-4.17;72.02
77017;BME280;65949;53.132;17.930;2023-02-28T00:50:24;102709.21;;;-4.17;72.03
77017;BME280;65949;53.132;17.930;2023-02-28T00:52:51;102708.77;;;-4.16;72.32
77017;BME280;65949;53.132;17.930;2023-02-28T00:55:17;102707.42;;;-4.14;71.93
77017;BME280;65949;53.132;17.930;2023-02-28T00:57:44;102709.14;;;-4.14;72.01
77017;BME280;65949;53.132;17.930;2023-02-28T01:00:12;102712.08;;;-4.17;71.92
77017;BME280;65949;53.132;17.930;2023-02-28T01:02:38;102711.99;;;-4.21;72.36
77017;BME280;65949;53.132;17.930;2023-02-28T01:05:05;102717.83;;;-4.24;72.42
77017;BME280;65949;53.132;17.930;2023-02-28T01:07:32;102716.52;;;-4.25;72.70
77017;BME280;65949;53.132;17.930;2023-02-28T01:09:59;102716.52;;;-4.27;72.46
77017;BME280;65949;53.132;17.930;2023-02-28T01:12:25;102720.98;;;-4.30;72.30
77017;BME280;65949;53.132;17.930;2023-02-28T01:14:52;102720.08;;;-4.34;72.25
77017;BME280;65949;53.132;17.930;2023-02-28T01:17:21;102718.38;;;-4.39;72.05
77017;BME280;65949;53.132;17.930;2023-02-28T01:19:48;102717.08;;;-4.45;72.43
77017;BME280;65949;53.132;17.930;2023-02-28T01:22:14;102718.16;;;-4.48;72.57
77017;BME280;65949;53.132;17.930;2023-02-28T01:24:42;102718.60;;;-4.50;72.89
77017;BME280;65949;53.132;17.930;2023-02-28T01:27:12;102718.87;;;-4.51;72.76
77017;BME280;65949;53.132;17.930;2023-02-28T01:29:39;102713.48;;;-4.54;72.59
77017;BME280;65949;53.132;17.930;2023-02-28T01:32:06;102711.30;;;-4.57;72.65
77017;BME280;65949;53.132;17.930;2023-02-28T01:34:32;102713.23;;;-4.58;72.81
77017;BME280;65949;53.132;17.930;2023-02-28T01:36:59;102709.19;;;-4.58;72.83
77017;BME280;65949;53.132;17.930;2023-02-28T01:39:26;102707.70;;;-4.56;72.83
77017;BME280;65949;53.132;17.930;2023-02-28T01:41:52;102705.91;;;-4.52;72.71
77017;BME280;65949;53.132;17.930;2023-02-28T01:44:58;102704.73;;;-4.50;72.59
77017;BME280;65949;53.132;17.930;2023-02-28T01:47:28;102705.61;;;-4.48;72.53
77017;BME280;65949;53.132;17.930;2023-02-28T01:49:58;102704.80;;;-4.44;72.46
77017;BME280;65949;53.132;17.930;2023-02-28T01:52:26;102701.29;;;-4.42;72.37
77017;BME280;65949;53.132;17.930;2023-02-28T01:54:55;102700.73;;;-4.44;72.49
77017;BME280;65949;53.132;17.930;2023-02-28T01:57:27;102699.11;;;-4.47;72.33
77017;BME280;65949;53.132;17.930;2023-02-28T02:00:03;102696.64;;;-4.49;72.34
77017;BME280;65949;53.132;17.930;2023-02-28T02:02:41;102696.56;;;-4.52;72.35
77017;BME280;65949;53.132;17.930;2023-02-28T02:05:14;102696.09;;;-4.57;72.40
77017;BME280;65949;53.132;17.930;2023-02-28T02:07:43;102697.13;;;-4.63;72.69
77017;BME280;65949;53.132;17.930;2023-02-28T02:10:21;102701.32;;;-4.65;72.87
77017;BME280;65949;53.132;17.930;2023-02-28T02:18:42;102698.31;;;-4.73;72.48
77017;BME280;65949;53.132;17.930;2023-02-28T02:26:55;102703.70;;;-4.89;72.67
77017;BME280;65949;53.132;17.930;2023-02-28T02:35:30;102706.63;;;-5.05;72.90
77017;BME280;65949;53.132;17.930;2023-02-28T02:38:06;102714.29;;;-5.05;72.86
77017;BME280;65949;53.132;17.930;2023-02-28T02:44:39;102714.16;;;-5.01;73.09
77017;BME280;65949;53.132;17.930;2023-02-28T02:46:41;102712.25;;;-4.98;73.25
77017;BME280;65949;53.132;17.930;2023-02-28T02:49:15;102711.86;;;-4.90;73.31
77017;BME280;65949;53.132;17.930;2023-02-28T02:51:44;102710.15;;;-4.82;73.02
77017;BME280;65949;53.132;17.930;2023-02-28T02:54:28;102711.09;;;-4.76;72.84
77017;BME280;65949;53.132;17.930;2023-02-28T02:56:58;102714.64;;;-4.73;72.41
77017;BME280;65949;53.132;17.930;2023-02-28T02:59:28;102710.30;;;-4.77;72.60
77017;BME280;65949;53.132;17.930;2023-02-28T03:02:03;102709.73;;;-4.81;72.78
77017;BME280;65949;53.132;17.930;2023-02-28T03:04:34;102711.39;;;-4.80;72.68
77017;BME280;65949;53.132;17.930;2023-02-28T03:07:04;102712.26;;;-4.81;72.72
77017;BME280;65949;53.132;17.930;2023-02-28T03:09:33;102711.91;;;-4.83;72.76
77017;BME280;65949;53.132;17.930;2023-02-28T03:12:00;102711.73;;;-4.85;72.85
77017;BME280;65949;53.132;17.930;2023-02-28T03:14:37;102709.90;;;-4.88;72.91
77017;BME280;65949;53.132;17.930;2023-02-28T03:20:19;102711.86;;;-4.97;72.61
77017;BME280;65949;53.132;17.930;2023-02-28T03:23:25;102708.29;;;-5.04;72.83
77017;BME280;65949;53.132;17.930;2023-02-28T03:26:03;102716.05;;;-5.09;72.92
77017;BME280;65949;53.132;17.930;2023-02-28T03:31:12;102718.71;;;-5.16;72.82
77017;BME280;65949;53.132;17.930;2023-02-28T03:33:54;102719.95;;;-5.19;73.25
77017;BME280;65949;53.132;17.930;2023-02-28T03:36:46;102718.24;;;-5.21;73.26
77017;BME280;65949;53.132;17.930;2023-02-28T03:39:19;102720.16;;;-5.22;73.13
77017;BME280;65949;53.132;17.930;2023-02-28T03:41:58;102720.79;;;-5.24;73.45
77017;BME280;65949;53.132;17.930;2023-02-28T03:44:33;102727.14;;;-5.23;73.52
77017;BME280;65949;53.132;17.930;2023-02-28T03:47:06;102728.73;;;-5.21;73.32
77017;BME280;65949;53.132;17.930;2023-02-28T03:49:39;102731.30;;;-5.19;73.32
77017;BME280;65949;53.132;17.930;2023-02-28T03:52:09;102734.35;;;-5.16;73.34
77017;BME280;65949;53.132;17.930;2023-02-28T03:54:42;102735.83;;;-5.11;73.04
77017;BME280;65949;53.132;17.930;2023-02-28T04:00:00;102736.25;;;-4.99;72.88
77017;BME280;65949;53.132;17.930;2023-02-28T04:02:39;102739.56;;;-4.98;72.68
77017;BME280;65949;53.132;17.930;2023-02-28T04:05:07;102739.84;;;-4.99;72.85
77017;BME280;65949;53.132;17.930;2023-02-28T04:07:34;102742.13;;;-5.01;72.89
77017;BME280;65949;53.132;17.930;2023-02-28T04:10:02;102740.06;;;-5.03;72.84
77017;BME280;65949;53.132;17.930;2023-02-28T04:12:28;102741.58;;;-5.03;73.13
77017;BME280;65949;53.132;17.930;2023-02-28T04:14:55;102741.89;;;-5.05;73.09
77017;BME280;65949;53.132;17.930;2023-02-28T04:17:22;102743.04;;;-5.10;72.87
77017;BME280;65949;53.132;17.930;2023-02-28T04:19:48;102739.85;;;-5.18;72.62
77017;BME280;65949;53.132;17.930;2023-02-28T04:22:16;102740.39;;;-5.24;73.00
77017;BME280;65949;53.132;17.930;2023-02-28T04:24:44;102739.42;;;-5.26;72.72
77017;BME280;65949;53.132;17.930;2023-02-28T04:27:11;102737.20;;;-5.29;73.02
77017;BME280;65949;53.132;17.930;2023-02-28T04:29:38;102735.71;;;-5.34;73.00
77017;BME280;65949;53.132;17.930;2023-02-28T04:32:05;102740.67;;;-5.40;73.14
77017;BME280;65949;53.132;17.930;2023-02-28T04:34:32;102738.73;;;-5.44;73.44
77017;BME280;65949;53.132;17.930;2023-02-28T04:36:59;102747.19;;;-5.47;73.29
77017;BME280;65949;53.132;17.930;2023-02-28T04:39:26;102746.33;;;-5.49;73.51
77017;BME280;65949;53.132;17.930;2023-02-28T04:41:53;102747.64;;;-5.51;73.55
77017;BME280;65949;53.132;17.930;2023-02-28T04:44:20;102747.95;;;-5.54;73.35
77017;BME280;65949;53.132;17.930;2023-02-28T04:46:48;102749.91;;;-5.54;73.57
77017;BME280;65949;53.132;17.930;2023-02-28T04:49:15;102753.60;;;-5.54;73.99
77017;BME280;65949;53.132;17.930;2023-02-28T04:51:42;102756.52;;;-5.50;74.01
77017;BME280;65949;53.132;17.930;2023-02-28T04:54:08;102758.41;;;-5.45;73.84
77017;BME280;65949;53.132;17.930;2023-02-28T04:56:35;102755.80;;;-5.41;73.51
77017;BME280;65949;53.132;17.930;2023-02-28T04:59:01;102755.37;;;-5.40;73.51
77017;BME280;65949;53.132;17.930;2023-02-28T05:01:31;102752.09;;;-5.36;73.49
77017;BME280;65949;53.132;17.930;2023-02-28T05:04:00;102755.25;;;-5.30;73.13
77017;BME280;65949;53.132;17.930;2023-02-28T05:06:30;102754.60;;;-5.31;73.24
77017;BME280;65949;53.132;17.930;2023-02-28T05:08:58;102758.63;;;-5.30;73.61
77017;BME280;65949;53.132;17.930;2023-02-28T05:11:27;102755.77;;;-5.28;73.74
77017;BME280;65949;53.132;17.930;2023-02-28T05:13:55;102760.88;;;-5.25;73.72
77017;BME280;65949;53.132;17.930;2023-02-28T05:16:22;102762.33;;;-5.22;73.53
77017;BME280;65949;53.132;17.930;2023-02-28T05:18:48;102759.63;;;-5.20;73.42
77017;BME280;65949;53.132;17.930;2023-02-28T05:23:51;102755.62;;;-5.26;72.85
77017;BME280;65949;53.132;17.930;2023-02-28T05:26:18;102759.96;;;-5.32;73.09
77017;BME280;65949;53.132;17.930;2023-02-28T05:28:45;102759.31;;;-5.38;73.09
77017;BME280;65949;53.132;17.930;2023-02-28T05:31:12;102757.87;;;-5.42;73.24
77017;BME280;65949;53.132;17.930;2023-02-28T05:33:39;102759.52;;;-5.46;73.30
77017;BME280;65949;53.132;17.930;2023-02-28T05:36:06;102758.59;;;-5.50;73.18
77017;BME280;65949;53.132;17.930;2023-02-28T05:38:33;102757.94;;;-5.53;73.23
77017;BME280;65949;53.132;17.930;2023-02-28T05:41:04;102760.61;;;-5.55;73.04
77017;BME280;65949;53.132;17.930;2023-02-28T05:43:30;102764.27;;;-5.57;73.43
77017;BME280;65949;53.132;17.930;2023-02-28T05:45:57;102765.77;;;-5.59;73.43
77017;BME280;65949;53.132;17.930;2023-02-28T05:48:24;102767.45;;;-5.59;73.44
77017;BME280;65949;53.132;17.930;2023-02-28T05:50:52;102768.52;;;-5.57;73.59
77017;BME280;65949;53.132;17.930;2023-02-28T05:53:18;102771.98;;;-5.53;73.35
77017;BME280;65949;53.132;17.930;2023-02-28T05:55:45;102768.30;;;-5.49;73.32
77017;BME280;65949;53.132;17.930;2023-02-28T05:58:12;102768.88;;;-5.44;73.18
77017;BME280;65949;53.132;17.930;2023-02-28T06:00:38;102769.64;;;-5.38;73.12
77017;BME280;65949;53.132;17.930;2023-02-28T06:03:05;102772.12;;;-5.32;72.96
77017;BME280;65949;53.132;17.930;2023-02-28T06:05:32;102773.94;;;-5.26;73.03
77017;BME280;65949;53.132;17.930;2023-02-28T06:07:59;102769.07;;;-5.21;73.15
77017;BME280;65949;53.132;17.930;2023-02-28T06:10:26;102774.71;;;-5.17;73.13
77017;BME280;65949;53.132;17.930;2023-02-28T06:12:52;102774.63;;;-5.10;73.16
77017;BME280;65949;53.132;17.930;2023-02-28T06:15:19;102773.75;;;-5.05;73.01
77017;BME280;65949;53.132;17.930;2023-02-28T06:17:47;102775.05;;;-5.01;73.12
77017;BME280;65949;53.132;17.930;2023-02-28T06:20:13;102778.88;;;-4.98;73.36
77017;BME280;65949;53.132;17.930;2023-02-28T06:22:40;102779.79;;;-4.94;73.34
77017;BME280;65949;53.132;17.930;2023-02-28T06:25:07;102782.42;;;-4.92;73.38
77017;BME280;65949;53.132;17.930;2023-02-28T06:27:34;102782.78;;;-4.90;73.60
77017;BME280;65949;53.132;17.930;2023-02-28T06:30:00;102785.40;;;-4.86;73.45
77017;BME280;65949;53.132;17.930;2023-02-28T06:32:27;102785.70;;;-4.81;73.67
77017;BME280;65949;53.132;17.930;2023-02-28T06:34:54;102789.17;;;-4.72;73.75
77017;BME280;65949;53.132;17.930;2023-02-28T06:37:21;102786.64;;;-4.62;73.68
77017;BME280;65949;53.132;17.930;2023-02-28T06:39:47;102786.73;;;-4.56;73.63
77017;BME280;65949;53.132;17.930;2023-02-28T06:42:14;102788.73;;;-4.51;73.57
77017;BME280;65949;53.132;17.930;2023-02-28T06:44:40;102791.40;;;-4.47;73.34
77017;BME280;65949;53.132;17.930;2023-02-28T06:47:09;102793.94;;;-4.45;73.66
77017;BME280;65949;53.132;17.930;2023-02-28T06:49:36;102791.48;;;-4.41;73.63
77017;BME280;65949;53.132;17.930;2023-02-28T06:52:02;102794.58;;;-4.37;73.73
77017;BME280;65949;53.132;17.930;2023-02-28T06:54:29;102796.90;;;-4.31;73.66
77017;BME280;65949;53.132;17.930;2023-02-28T06:56:57;102797.80;;;-4.27;73.71
77017;BME280;65949;53.132;17.930;2023-02-28T06:59:24;102802.59;;;-4.22;74.01
77017;BME280;65949;53.132;17.930;2023-02-28T07:01:51;102806.56;;;-4.16;74.09
77017;BME280;65949;53.132;17.930;2023-02-28T07:04:18;102808.73;;;-4.09;73.88
77017;BME280;65949;53.132;17.930;2023-02-28T07:06:45;102811.78;;;-4.01;73.90
77017;BME280;65949;53.132;17.930;2023-02-28T07:09:11;102817.74;;;-3.89;73.75
77017;BME280;65949;53.132;17.930;2023-02-28T07:11:38;102816.55;;;-3.75;73.77
77017;BME280;65949;53.132;17.930;2023-02-28T07:14:05;102814.08;;;-3.59;73.73
77017;BME280;65949;53.132;17.930;2023-02-28T07:16:31;102811.80;;;-3.44;73.55
77017;BME280;65949;53.132;17.930;2023-02-28T07:18:58;102815.55;;;-3.30;73.63
77017;BME280;65949;53.132;17.930;2023-02-28T07:21:25;102811.05;;;-3.17;73.43
77017;BME280;65949;53.132;17.930;2023-02-28T07:23:51;102812.59;;;-3.04;73.14
77017;BME280;65949;53.132;17.930;2023-02-28T07:26:20;102805.73;;;-2.92;73.22
77017;BME280;65949;53.132;17.930;2023-02-28T07:28:48;102807.88;;;-2.84;73.13
77017;BME280;65949;53.132;17.930;2023-02-28T07:31:16;102806.52;;;-2.77;72.91
77017;BME280;65949;53.132;17.930;2023-02-28T07:33:43;102805.48;;;-2.70;72.93
77017;BME280;65949;53.132;17.930;2023-02-28T07:36:14;102803.24;;;-2.63;72.75
77017;BME280;65949;53.132;17.930;2023-02-28T07:38:43;102802.06;;;-2.57;72.92
77017;BME280;65949;53.132;17.930;2023-02-28T07:41:10;102802.53;;;-2.50;72.85
77017;BME280;65949;53.132;17.930;2023-02-28T07:43:37;102803.59;;;-2.43;72.86
77017;BME280;65949;53.132;17.930;2023-02-28T07:46:06;102800.19;;;-2.37;72.91
77017;BME280;65949;53.132;17.930;2023-02-28T07:48:33;102797.29;;;-2.28;72.83
77017;BME280;65949;53.132;17.930;2023-02-28T07:51:00;102794.45;;;-2.18;72.70
77017;BME280;65949;53.132;17.930;2023-02-28T07:53:28;102793.92;;;-2.07;72.56
77017;BME280;65949;53.132;17.930;2023-02-28T07:55:59;102793.65;;;-1.92;72.58
77017;BME280;65949;53.132;17.930;2023-02-28T07:58:28;102798.56;;;-1.75;72.47
77017;BME280;65949;53.132;17.930;2023-02-28T08:00:56;102801.23;;;-1.57;72.35
77017;BME280;65949;53.132;17.930;2023-02-28T08:03:23;102807.39;;;-1.38;72.27
77017;BME280;65949;53.132;17.930;2023-02-28T08:05:50;102806.48;;;-1.25;71.88
77017;BME280;65949;53.132;17.930;2023-02-28T08:08:19;102809.14;;;-1.12;71.90
77017;BME280;65949;53.132;17.930;2023-02-28T08:10:45;102812.65;;;-0.99;71.82
77017;BME280;65949;53.132;17.930;2023-02-28T08:13:12;102812.83;;;-0.85;71.62
77017;BME280;65949;53.132;17.930;2023-02-28T08:15:40;102817.48;;;-0.75;71.31
77017;BME280;65949;53.132;17.930;2023-02-28T08:18:08;102814.73;;;-0.66;71.53
77017;BME280;65949;53.132;17.930;2023-02-28T08:20:35;102814.20;;;-0.54;71.34
77017;BME280;65949;53.132;17.930;2023-02-28T08:23:01;102812.79;;;-0.48;71.08
77017;BME280;65949;53.132;17.930;2023-02-28T08:25:28;102810.56;;;-0.38;71.13
77017;BME280;65949;53.132;17.930;2023-02-28T08:27:55;102809.09;;;-0.29;71.01
77017;BME280;65949;53.132;17.930;2023-02-28T08:30:21;102801.88;;;-0.18;70.89
77017;BME280;65949;53.132;17.930;2023-02-28T08:32:48;102800.52;;;-0.08;70.78
77017;BME280;65949;53.132;17.930;2023-02-28T08:35:14;102799.13;;;0.00;70.58
77017;BME280;65949;53.132;17.930;2023-02-28T08:37:41;102799.27;;;0.08;70.47
77017;BME280;65949;53.132;17.930;2023-02-28T08:40:08;102798.21;;;0.17;70.19
77017;BME280;65949;53.132;17.930;2023-02-28T08:42:35;102795.52;;;0.26;70.03
77017;BME280;65949;53.132;17.930;2023-02-28T08:45:02;102795.77;;;0.35;69.65
77017;BME280;65949;53.132;17.930;2023-02-28T08:47:29;102794.94;;;0.40;69.61
77017;BME280;65949;53.132;17.930;2023-02-28T08:50:05;102788.52;;;0.55;69.50
77017;BME280;65949;53.132;17.930;2023-02-28T08:52:33;102784.44;;;0.66;69.36
77017;BME280;65949;53.132;17.930;2023-02-28T08:54:59;102783.34;;;0.72;68.91
77017;BME280;65949;53.132;17.930;2023-02-28T08:57:26;102784.83;;;0.77;68.26
77017;BME280;65949;53.132;17.930;2023-02-28T08:59:53;102779.37;;;0.80;68.62
77017;BME280;65949;53.132;17.930;2023-02-28T09:02:20;102776.44;;;0.92;68.46
77017;BME280;65949;53.132;17.930;2023-02-28T09:04:46;102774.88;;;1.01;68.36
77017;BME280;65949;53.132;17.930;2023-02-28T09:07:13;102779.36;;;1.14;68.27
77017;BME280;65949;53.132;17.930;2023-02-28T09:09:40;102776.69;;;1.24;67.93
77017;BME280;65949;53.132;17.930;2023-02-28T09:12:21;102783.34;;;1.35;67.64
77017;BME280;65949;53.132;17.930;2023-02-28T09:14:48;102784.80;;;1.43;67.30
77017;BME280;65949;53.132;17.930;2023-02-28T09:17:15;102785.48;;;1.49;66.89
77017;BME280;65949;53.132;17.930;2023-02-28T09:19:42;102784.80;;;1.56;66.37
77017;BME280;65949;53.132;17.930;2023-02-28T09:22:10;102779.93;;;1.61;65.94
77017;BME280;65949;53.132;17.930;2023-02-28T09:24:38;102780.04;;;1.65;65.53
77017;BME280;65949;53.132;17.930;2023-02-28T09:27:05;102779.54;;;1.65;64.90
77017;BME280;65949;53.132;17.930;2023-02-28T09:29:34;102780.45;;;1.68;65.33
77017;BME280;65949;53.132;17.930;2023-02-28T09:32:01;102780.09;;;1.75;65.64
77017;BME280;65949;53.132;17.930;2023-02-28T09:34:29;102777.70;;;1.84;65.67
77017;BME280;65949;53.132;17.930;2023-02-28T09:36:57;102778.11;;;1.91;64.93
77017;BME280;65949;53.132;17.930;2023-02-28T09:39:24;102776.40;;;1.96;64.79
77017;BME280;65949;53.132;17.930;2023-02-28T09:41:54;102779.58;;;1.99;63.55
77017;BME280;65949;53.132;17.930;2023-02-28T09:44:43;102779.30;;;1.98;64.07
77017;BME280;65949;53.132;17.930;2023-02-28T09:47:13;102783.19;;;2.02;64.06
77017;BME280;65949;53.132;17.930;2023-02-28T09:49:43;102781.99;;;2.07;63.52
77017;BME280;65949;53.132;17.930;2023-02-28T09:52:17;102790.39;;;2.15;63.76
77017;BME280;65949;53.132;17.930;2023-02-28T09:54:45;102787.06;;;2.19;61.95
77017;BME280;65949;53.132;17.930;2023-02-28T09:57:37;102786.42;;;2.17;61.96
77017;BME280;65949;53.132;17.930;2023-02-28T10:05:44;102772.67;;;2.31;62.37
77017;BME280;65949;53.132;17.930;2023-02-28T10:08:34;102769.81;;;2.38;61.90
77017;BME280;65949;53.132;17.930;2023-02-28T10:11:07;102769.21;;;2.42;61.84
77017;BME280;65949;53.132;17.930;2023-02-28T10:13:54;102772.20;;;2.50;62.38
77017;BME280;65949;53.132;17.930;2023-02-28T10:16:37;102772.54;;;2.58;62.21
77017;BME280;65949;53.132;17.930;2023-02-28T10:19:34;102773.48;;;2.63;61.46
77017;BME280;65949;53.132;17.930;2023-02-28T10:24:32;102775.78;;;2.73;61.27
77017;BME280;65949;53.132;17.930;2023-02-28T10:27:12;102772.19;;;2.78;60.84
77017;BME280;65949;53.132;17.930;2023-02-28T10:29:43;102769.70;;;2.82;59.89
77017;BME280;65949;53.132;17.930;2023-02-28T10:32:14;102764.44;;;2.83;59.14
77017;BME280;65949;53.132;17.930;2023-02-28T10:34:41;102759.61;;;2.83;59.88
77017;BME280;65949;53.132;17.930;2023-02-28T10:37:09;102755.05;;;2.88;59.02
77017;BME280;65949;53.132;17.930;2023-02-28T10:39:45;102753.48;;;2.91;59.84
77017;BME280;65949;53.132;17.930;2023-02-28T10:44:48;102747.49;;;3.06;58.47
77017;BME280;65949;53.132;17.930;2023-02-28T10:47:16;102751.36;;;3.12;58.90
77017;BME280;65949;53.132;17.930;2023-02-28T10:49:48;102747.56;;;3.14;58.05
77017;BME280;65949;53.132;17.930;2023-02-28T10:52:34;102739.70;;;3.15;58.06
77017;BME280;65949;53.132;17.930;2023-02-28T10:55:24;102741.58;;;3.21;58.65
77017;BME280;65949;53.132;17.930;2023-02-28T10:57:52;102742.45;;;3.29;57.90
77017;BME280;65949;53.132;17.930;2023-02-28T11:00:24;102734.39;;;3.37;57.41
77017;BME280;65949;53.132;17.930;2023-02-28T11:02:51;102732.51;;;3.42;57.59
77017;BME280;65949;53.132;17.930;2023-02-28T11:05:29;102734.71;;;3.44;56.27
77017;BME280;65949;53.132;17.930;2023-02-28T11:08:09;102730.13;;;3.42;57.35
77017;BME280;65949;53.132;17.930;2023-02-28T11:10:38;102727.55;;;3.49;57.42
77017;BME280;65949;53.132;17.930;2023-02-28T11:13:05;102728.87;;;3.51;56.80
77017;BME280;65949;53.132;17.930;2023-02-28T11:15:33;102729.73;;;3.53;55.76
77017;BME280;65949;53.132;17.930;2023-02-28T11:20:51;102724.10;;;3.59;56.43
77017;BME280;65949;53.132;17.930;2023-02-28T11:23:19;102718.73;;;3.65;56.62
77017;BME280;65949;53.132;17.930;2023-02-28T11:25:52;102724.34;;;3.71;56.46
77017;BME280;65949;53.132;17.930;2023-02-28T11:28:32;102726.80;;;3.76;55.71
77017;BME280;65949;53.132;17.930;2023-02-28T11:33:54;102722.05;;;3.87;55.76
77017;BME280;65949;53.132;17.930;2023-02-28T11:36:25;102722.48;;;3.94;55.80
77017;BME280;65949;53.132;17.930;2023-02-28T11:38:55;102715.70;;;4.02;56.19
77017;BME280;65949;53.132;17.930;2023-02-28T11:50:20;102702.66;;;4.14;53.95
77017;BME280;65949;53.132;17.930;2023-02-28T11:53:26;102700.49;;;4.15;54.21
77017;BME280;65949;53.132;17.930;2023-02-28T11:56:06;102699.82;;;4.21;54.65
77017;BME280;65949;53.132;17.930;2023-02-28T12:10:29;102688.56;;;4.25;53.77
77017;BME280;65949;53.132;17.930;2023-02-28T12:13:18;102683.27;;;4.37;53.28
77017;BME280;65949;53.132;17.930;2023-02-28T12:16:04;102683.88;;;4.49;52.86
77017;BME280;65949;53.132;17.930;2023-02-28T12:18:53;102683.26;;;4.52;51.52
77017;BME280;65949;53.132;17.930;2023-02-28T12:26:53;102681.71;;;4.34;51.05
77017;BME280;65949;53.132;17.930;2023-02-28T12:29:23;102678.33;;;4.39;51.52
77017;BME280;65949;53.132;17.930;2023-02-28T12:34:32;102686.89;;;4.58;51.87
77017;BME280;65949;53.132;17.930;2023-02-28T12:37:05;102686.89;;;4.68;51.19
77017;BME280;65949;53.132;17.930;2023-02-28T12:39:38;102685.30;;;4.71;50.65
77017;BME280;65949;53.132;17.930;2023-02-28T12:42:12;102682.09;;;4.75;49.95
77017;BME280;65949;53.132;17.930;2023-02-28T12:44:47;102679.27;;;4.77;49.80
77017;BME280;65949;53.132;17.930;2023-02-28T12:47:17;102675.04;;;4.83;50.08
77017;BME280;65949;53.132;17.930;2023-02-28T12:49:57;102671.20;;;4.91;50.36
77017;BME280;65949;53.132;17.930;2023-02-28T12:52:48;102661.55;;;5.02;50.92
77017;BME280;65949;53.132;17.930;2023-02-28T12:55:31;102659.89;;;5.12;50.32
77017;BME280;65949;53.132;17.930;2023-02-28T12:58:38;102658.33;;;5.17;49.44
77017;BME280;65949;53.132;17.930;2023-02-28T13:03:47;102644.90;;;5.19;49.72
77017;BME280;65949;53.132;17.930;2023-02-28T13:06:39;102643.48;;;5.25;49.22
77017;BME280;65949;53.132;17.930;2023-02-28T13:09:15;102640.28;;;5.20;48.85
77017;BME280;65949;53.132;17.930;2023-02-28T13:11:45;102639.23;;;5.22;48.65
77017;BME280;65949;53.132;17.930;2023-02-28T13:19:32;102636.88;;;5.23;49.31
77017;BME280;65949;53.132;17.930;2023-02-28T13:22:00;102634.05;;;5.25;48.51
77017;BME280;65949;53.132;17.930;2023-02-28T13:24:44;102632.83;;;5.17;48.62
77017;BME280;65949;53.132;17.930;2023-02-28T13:29:53;102633.18;;;5.26;49.03
77017;BME280;65949;53.132;17.930;2023-02-28T13:47:35;102614.95;;;5.08;48.68
77017;BME280;65949;53.132;17.930;2023-02-28T13:50:27;102614.80;;;5.05;48.40
77017;BME280;65949;53.132;17.930;2023-02-28T14:06:26;102594.06;;;5.02;48.22
77017;BME280;65949;53.132;17.930;2023-02-28T14:09:25;102593.70;;;5.07;47.79
77017;BME280;65949;53.132;17.930;2023-02-28T14:11:53;102590.95;;;5.05;47.98
77017;BME280;65949;53.132;17.930;2023-02-28T14:17:22;102583.27;;;5.03;47.58
77017;BME280;65949;53.132;17.930;2023-02-28T14:19:50;102588.39;;;5.02;47.19
77017;BME280;65949;53.132;17.930;2023-02-28T14:30:40;102586.13;;;4.79;47.33
77017;BME280;65949;53.132;17.930;2023-02-28T14:36:04;102575.92;;;4.78;47.97
77017;BME280;65949;53.132;17.930;2023-02-28T14:38:48;102569.60;;;4.77;47.79
77017;BME280;65949;53.132;17.930;2023-02-28T14:41:32;102566.71;;;4.80;47.98
77017;BME280;65949;53.132;17.930;2023-02-28T14:46:40;102564.52;;;4.70;47.63
77017;BME280;65949;53.132;17.930;2023-02-28T14:49:17;102567.20;;;4.69;46.57
77017;BME280;65949;53.132;17.930;2023-02-28T14:51:44;102566.30;;;4.61;46.79
77017;BME280;65949;53.132;17.930;2023-02-28T14:54:15;102563.70;;;4.55;46.95
77017;BME280;65949;53.132;17.930;2023-02-28T14:56:43;102565.46;;;4.46;47.46
77017;BME280;65949;53.132;17.930;2023-02-28T14:59:36;102567.18;;;4.45;48.05
77017;BME280;65949;53.132;17.930;2023-02-28T15:04:40;102572.61;;;4.42;48.95
77017;BME280;65949;53.132;17.930;2023-02-28T15:07:14;102579.94;;;4.45;48.87
77017;BME280;65949;53.132;17.930;2023-02-28T15:09:40;102575.96;;;4.42;48.50
77017;BME280;65949;53.132;17.930;2023-02-28T15:12:07;102572.87;;;4.37;48.56
77017;BME280;65949;53.132;17.930;2023-02-28T15:14:38;102570.27;;;4.34;48.38
77017;BME280;65949;53.132;17.930;2023-02-28T15:17:19;102572.70;;;4.29;47.80